• Join FlightAware (Why Join?)
  • Login
  • US Flag 
12:39AM EDT


 

Airport Tracker/Info


-or-


 

Live Flight TrackerFlight Track Log ✈ DAL268 ✈ 28-Apr-2013 ✈ KATL - KJFK

Flight Track Log - Related Links

Times and Time Zones

All times are in EDT time to prevent confusion due to time zone crossing. See the DAL268 flight status page for this flight to view local times or setup timezone preferences in your user account.

Time Position Orientation Groundspeed Altitude Reporting Facility
EDT Latitude Longitude Course Direction KTS MPH feet Rate Location/Type
07:16PM 33.6353 -84.3731 64° Northeast 437 503 2,200  Level Atlanta Center
07:17PM 33.6333 -84.2783 91° East 306 352 4,200 2,280 Climbing Atlanta Center
07:18PM 33.6333 -84.1811 90° East 301 346 6,800 2,760 Climbing Atlanta Center
07:19PM 33.6817 -83.8231 101° East  Level FlightAware Approximate
07:19PM 33.6336 -84.0761 90° East 332 382 9,800  Level Atlanta Center
07:20PM 33.6567 -83.6735 101° East  Level FlightAware Approximate
07:20PM 33.6419 -83.9664 85° East 326 375 11,200  Level Atlanta Center
07:21PM 33.6910 -83.5331 64° Northeast  Level FlightAware Approximate
07:21PM 33.6481 -83.8367 87° East 367 422 13,300  Level Atlanta Center
07:22PM 33.6561 -83.7044 86° East 389 448 15,700 2,220 Climbing Atlanta Center
07:23PM 33.6847 -83.5719 75° East 403 464 17,800 1,920 Climbing Atlanta Center
07:24PM 33.7406 -83.4467 62° Northeast 408 470 19,600 1,800 Climbing Atlanta Center
07:25PM 33.7922 -83.3164 64° Northeast 420 483 21,400 1,440 Climbing Atlanta Center
07:26PM 33.8433 -83.1858 65° Northeast 425 489 22,500 1,140 Climbing Atlanta Center
07:27PM 33.9092 -83.0550 59° Northeast 442 509 23,700 960 Climbing Atlanta Center
07:28PM 33.9708 -82.9392 57° Northeast 449 517 24,500 720 Climbing Atlanta Center
07:29PM 34.0447 -82.8053 56° Northeast 469 540 25,200 900 Climbing Atlanta Center
07:30PM 34.1247 -82.6686 55° Northeast 486 559 26,300 1,200 Climbing Atlanta Center
07:31PM 34.2064 -82.5167 57° Northeast 492 566 27,700 900 Climbing Atlanta Center
07:32PM 34.2819 -82.3794 56° Northeast 492 566 28,100 600 Climbing Atlanta Center
07:33PM 34.3572 -82.2397 57° Northeast 487 560 28,900 960 Climbing Atlanta Center
07:34PM 34.4322 -82.1019 57° Northeast 487 560 30,100 900 Climbing Atlanta Center
07:35PM 34.5072 -81.9617 57° Northeast 487 560 30,800 600 Climbing Atlanta Center
07:36PM 34.5756 -81.8161 60° Northeast 487 560 31,400 600 Climbing Atlanta Center
07:37PM 34.6417 -81.6706 61° Northeast 493 567 32,000 300 Climbing Atlanta Center
07:38PM 34.7056 -81.5222 62° Northeast 488 562 32,000  Level Atlanta Center
07:39PM 34.7733 -81.3711 61° Northeast 488 562 32,000  Level Atlanta Center
07:40PM 34.8308 -81.2350 63° Northeast 493 567 32,000  Level Atlanta Center
07:41PM 34.8983 -81.0858 61° Northeast 499 574 32,000  Level Atlanta Center
07:42PM 34.9633 -80.9314 63° Northeast 508 585 32,000  Level Atlanta Center
07:43PM 35.0303 -80.7794 62° Northeast 508 585 32,000  Level Atlanta Center
07:44PM 35.0950 -80.6294 62° Northeast 503 579 32,000 300 Level Atlanta Center
07:46PM 35.2492 -80.2592 63° Northeast 510 587 33,000 300 Climbing Washington Center
07:47PM 35.3178 -80.1053 61° Northeast 504 580 33,000  Level Washington Center
07:48PM 35.3858 -79.9536 61° Northeast 504 580 33,000  Level Washington Center
07:49PM 35.4519 -79.7967 63° Northeast 504 580 33,000  Level Washington Center
07:50PM 35.5156 -79.6469 62° Northeast 504 580 33,000  Level Washington Center
07:51PM 35.5769 -79.5019 62° Northeast 490 564 33,000  Level Washington Center
07:52PM 35.6378 -79.3567 63° Northeast 476 548 33,000  Level Washington Center
07:53PM 35.6986 -79.2086 63° Northeast 476 548 33,000  Level Washington Center
07:54PM 35.7592 -79.0656 62° Northeast 471 542 33,000  Level Washington Center
07:55PM 35.8219 -78.9144 63° Northeast 476 548 33,000  Level Washington Center
07:56PM 35.8739 -78.7731 66° East 482 555 33,000  Level Washington Center
07:57PM 35.8950 -78.5969 82° East 496 571 33,000  Level Washington Center
07:58PM 35.9119 -78.4181 83° East 509 586 33,000  Level Washington Center
07:59PM 35.9286 -78.2417 83° East 519 597 33,000  Level Washington Center
08:00PM 35.9428 -78.0678 84° East 519 597 33,000  Level Washington Center
08:01PM 35.9608 -77.8886 83° East 519 597 33,000  Level Washington Center
08:02PM 35.9808 -77.7147 82° East 519 597 33,000  Level Washington Center
08:03PM 36.0583 -77.5703 56° Northeast 492 566 33,000  Level Washington Center
08:04PM 36.1439 -77.4361 52° Northeast 492 566 33,000  Level Washington Center
08:05PM 36.2317 -77.2889 54° Northeast 486 559 33,000  Level Washington Center
08:06PM 36.3169 -77.1514 52° Northeast 491 565 33,000  Level Washington Center
08:07PM 36.3917 -77.0292 53° Northeast 496 571 33,000  Level Washington Center
08:08PM 36.4831 -76.8783 53° Northeast 496 571 33,000  Level Washington Center
08:09PM 36.5572 -76.7581 52° Northeast 496 571 33,000  Level Washington Center
08:10PM 36.6419 -76.6197 53° Northeast 496 571 33,000  Level Washington Center
08:11PM 36.7222 -76.4781 55° Northeast 503 579 33,000  Level Washington Center
08:12PM 36.8047 -76.3417 53° Northeast 503 579 33,000  Level Washington Center
08:13PM 36.8931 -76.2125 49° Northeast 498 573 33,000  Level Washington Center
08:14PM 37.0247 -76.1331 26° Northeast 469 540 33,000  Level Washington Center
08:15PM 37.1419 -76.0714 23° Northeast 449 517 33,000  Level Washington Center
08:16PM 37.2611 -76.0094 22° Northeast 454 522 33,000  Level Washington Center
08:17PM 37.3822 -75.9472 22° Northeast 460 529 33,000  Level Washington Center
08:18PM 37.5011 -75.8850 23° Northeast 460 529 33,000  Level Washington Center
08:19PM 37.6139 -75.8094 28° Northeast 455 524 33,000  Level Washington Center
08:20PM 37.7267 -75.7206 32° Northeast 462 532 33,000  Level Washington Center
08:21PM 37.8394 -75.6392 30° Northeast 467 537 33,000  Level Washington Center
08:22PM 37.9519 -75.5522 31° Northeast 467 537 33,000  Level Washington Center
08:23PM 38.0667 -75.4678 30° Northeast 467 537 33,000  Level Washington Center
08:24PM 38.1833 -75.3989 25° Northeast 462 532 33,000  Level Washington Center
08:25PM 38.2978 -75.3219 28° Northeast 456 525 33,000  Level Washington Center
08:26PM 38.4042 -75.2500 28° Northeast 471 542 33,000  Level Washington Center
08:27PM 38.5228 -75.1750 26° Northeast 466 536 33,000  Level Washington Center
08:28PM 38.6369 -75.0972 28° Northeast 466 536 33,000  Level Washington Center
08:29PM 38.7556 -75.0300 24° Northeast 466 536 33,000 -120 Level Washington Center
08:30PM 38.8719 -74.9517 28° Northeast 466 536 32,800 -1,320 Descending Washington Center
08:31PM 38.9903 -74.8758 26° Northeast 466 536 30,400 -2,520 Descending Washington Center
08:32PM 39.1044 -74.7972 28° Northeast 461 531 27,800 -2,460 Descending Washington Center
08:33PM 39.2058 -74.6917 39° Northeast 461 531 25,500 -2,220 Descending Washington Center
08:34PM 39.3056 -74.5836 40° Northeast 456 525 23,300 -2,220 Descending New York Center
08:35PM 39.3944 -74.4836 41° Northeast 421 484 21,100 -2,280 Descending New York Center
08:36PM 39.4850 -74.3806 41° Northeast 411 473 18,800 -1,560 Descending New York Center
08:37PM 39.5778 -74.2778 40° Northeast 406 467 18,000 -660 Descending New York Center
08:38PM 39.6661 -74.1850 39° Northeast 401 461 17,500 -1,260 Descending New York Center
08:39PM 39.7394 -74.1022 41° Northeast 390 449 15,600 -1,620 Descending New York Center
08:40PM 39.8147 -74.0167 41° Northeast 383 441 14,400 -1,380 Descending New York Center
08:41PM 39.9000 -73.9503 31° Northeast 339 390 12,900 -1,440 Descending New York Center
08:42PM 39.9706 -73.8831 36° Northeast 320 368 11,500 -1,020 Descending New York Center
08:43PM 40.0408 -73.8267 32° Northeast 302 348 11,000 -1,140 Descending New York Center
08:44PM 40.1189 -73.7892 20° North 292 336 9,300 -1,620 Descending New York Center
08:45PM 40.1500 -73.7667 29° Northeast 292 336 8,600 -1,500 Descending New York TRACON
08:46PM 40.2333 -73.7333 17° North 284 327 7,100 -1,560 Descending New York TRACON
08:47PM 40.3000 -73.8000 323° Northwest 279 321 5,500 -1,200 Descending New York TRACON
08:48PM 40.3333 -73.8667 303° West 243 280 4,700 -900 Descending New York TRACON
08:48PM 40.3558 -73.8922 319° Northwest 250 288 4,200 -720 Descending New York Center
08:49PM 40.3833 -73.9167 326° Northwest 208 239 4,000 -660 Descending New York TRACON
08:50PM 40.4167 -73.9833 303° West 198 228 3,200 -540 Descending New York TRACON
08:51PM 40.4667 -73.9833 360° North 203 234 3,000 -120 Descending New York TRACON
08:52PM 40.5167 -73.9667 14° North 204 235 3,000 -480 Level New York TRACON
08:53PM 40.5667 -73.9333 27° Northeast 202 232 2,100 -900 Descending New York TRACON